Time;durP1;ratioP1;P1;durP2;ratioP2;P2;SDS_P1;SDS_P2;PMS_P1;PMS_P2;Temp;Humidity;BMP_temperature;BMP_pressure;BME280_temperature;BME280_humidity;BME280_pressure;Samples;Min_cycle;Max_cycle;Signal;HPM_P1;HPM_P2
2023/04/25 00:00:28;;;;;;;11.20;8.00;;;;;;;10.33;94.08;97518.55;105285;1253;99154;-71
2023/04/25 00:03:00;;;;;;;12.70;7.90;;;;;;;10.35;94.37;97519.71;105273;1275;97906;-72
2023/04/25 00:05:29;;;;;;;11.60;8.00;;;;;;;10.39;94.26;97524.23;105328;1256;113386;-73
2023/04/25 00:07:57;;;;;;;11.60;7.70;;;;;;;10.37;93.89;97528.23;105231;1253;99188;-73
2023/04/25 00:10:24;;;;;;;13.40;8.40;;;;;;;10.35;94.15;97526.54;105220;1256;108616;-74
2023/04/25 00:12:51;;;;;;;12.70;8.10;;;;;;;10.32;94.34;97528.38;105259;1266;97884;-73
2023/04/25 00:15:18;;;;;;;10.30;6.50;;;;;;;10.34;94.68;97531.88;105191;1256;97913;-73
2023/04/25 00:17:45;;;;;;;10.50;6.30;;;;;;;10.31;94.20;97531.65;105305;1264;97980;-74
2023/04/25 00:20:12;;;;;;;10.50;6.40;;;;;;;10.29;94.20;97531.86;105232;1256;98005;-72
2023/04/25 00:22:39;;;;;;;9.90;6.00;;;;;;;10.24;93.96;97532.74;105163;1256;97971;-73
2023/04/25 00:25:07;;;;;;;10.10;5.60;;;;;;;10.20;94.09;97531.03;105332;1253;97916;-72
2023/04/25 00:27:34;;;;;;;8.90;5.60;;;;;;;10.19;94.30;97529.66;105148;1256;112894;-73
2023/04/25 00:30:01;;;;;;;7.70;4.40;;;;;;;10.16;94.39;97530.27;105223;1256;98003;-72
2023/04/25 00:32:27;;;;;;;7.20;4.50;;;;;;;10.06;94.45;97535.18;105131;1267;97973;-73
2023/04/25 00:34:55;;;;;;;8.10;4.60;;;;;;;10.02;94.21;97531.83;105048;1252;98016;-72
2023/04/25 00:37:22;;;;;;;6.40;4.80;;;;;;;9.97;93.74;97530.42;105229;1253;98002;-73
2023/04/25 00:39:51;;;;;;;7.20;5.00;;;;;;;9.94;93.67;97531.39;105173;1256;99186;-73
2023/04/25 00:42:18;;;;;;;6.70;4.40;;;;;;;9.94;93.36;97534.20;105310;1254;97998;-76
2023/04/25 00:44:46;;;;;;;6.80;4.20;;;;;;;9.93;93.40;97536.99;105160;1255;97890;-75
2023/04/25 00:47:13;;;;;;;7.40;4.60;;;;;;;9.91;93.08;97538.05;105414;1254;98002;-72
2023/04/25 00:49:40;;;;;;;6.10;3.90;;;;;;;9.94;93.34;97542.05;105298;1256;98863;-73
2023/04/25 00:52:07;;;;;;;6.10;4.10;;;;;;;9.97;93.14;97540.66;105315;1268;97900;-73
2023/04/25 00:54:34;;;;;;;7.40;4.10;;;;;;;9.97;93.22;97544.95;105262;1253;97897;-72
2023/04/25 00:57:01;;;;;;;7.10;4.00;;;;;;;9.95;93.23;97542.55;105260;1268;99642;-73
2023/04/25 00:59:30;;;;;;;5.50;4.00;;;;;;;9.88;92.96;97542.70;105326;1257;97976;-73
2023/04/25 01:01:58;;;;;;;7.10;4.60;;;;;;;9.84;93.42;97541.16;105358;1256;97898;-73
2023/04/25 01:04:28;;;;;;;5.50;4.00;;;;;;;9.78;93.61;97544.94;105409;1256;98015;-73
2023/04/25 01:06:55;;;;;;;6.00;3.90;;;;;;;9.73;94.12;97544.34;105321;1256;99273;-74
2023/04/25 01:09:23;;;;;;;4.80;3.20;;;;;;;9.72;94.06;97547.13;105316;1256;97912;-72
2023/04/25 01:11:50;;;;;;;4.50;3.50;;;;;;;9.69;93.37;97552.19;105315;1256;99218;-72
2023/04/25 01:14:17;;;;;;;4.30;3.00;;;;;;;9.71;93.24;97550.15;105268;1256;97910;-72
2023/04/25 01:16:44;;;;;;;3.90;3.10;;;;;;;9.67;92.45;97555.55;105322;1256;98012;-75
2023/04/25 01:19:15;;;;;;;3.90;2.60;;;;;;;9.64;92.25;97551.85;106292;1256;97884;-73
2023/04/25 01:21:42;;;;;;;3.90;3.00;;;;;;;9.61;91.65;97551.61;105366;1256;108363;-72
2023/04/25 01:24:09;;;;;;;4.80;3.10;;;;;;;9.59;91.18;97557.14;105327;1256;98579;-72
2023/04/25 01:26:36;;;;;;;4.10;2.70;;;;;;;9.53;90.60;97558.02;105342;1258;97976;-72
2023/04/25 01:29:07;;;;;;;4.70;2.60;;;;;;;9.48;90.28;97558.98;105346;1256;97951;-72
2023/04/25 01:31:35;;;;;;;3.40;2.50;;;;;;;9.39;89.56;97562.75;105367;1256;99257;-71
2023/04/25 01:34:02;;;;;;;2.70;2.30;;;;;;;9.30;90.13;97562.08;105294;1269;98300;-71
2023/04/25 01:36:30;;;;;;;2.90;2.20;;;;;;;9.22;90.45;97564.86;105241;1258;98828;-72
2023/04/25 01:38:57;;;;;;;3.40;2.40;;;;;;;9.16;90.03;97565.71;105262;1265;99208;-72
2023/04/25 01:41:25;;;;;;;3.10;2.40;;;;;;;9.14;89.87;97564.00;105274;1258;97886;-71
2023/04/25 01:43:52;;;;;;;2.60;2.30;;;;;;;9.16;89.64;97566.20;105298;1256;98788;-71
2023/04/25 01:46:19;;;;;;;4.10;2.20;;;;;;;9.15;89.50;97564.04;105288;1256;97870;-71
2023/04/25 01:48:46;;;;;;;3.30;2.40;;;;;;;9.17;89.54;97569.88;105376;1266;97969;-71
2023/04/25 01:51:15;;;;;;;4.00;2.90;;;;;;;9.19;89.47;97572.83;105316;1256;99103;-70
2023/04/25 01:53:43;;;;;;;3.90;2.90;;;;;;;9.20;89.57;97578.84;105333;1256;112291;-70
2023/04/25 01:56:10;;;;;;;3.50;2.70;;;;;;;9.18;89.48;97578.52;105367;1256;99438;-70
2023/04/25 01:58:36;;;;;;;4.70;3.00;;;;;;;9.17;89.57;97581.75;105112;1262;97953;-71
2023/04/25 02:01:03;;;;;;;5.20;2.90;;;;;;;9.15;89.83;97582.30;105116;1253;99099;-70
2023/04/25 02:03:31;;;;;;;4.50;2.90;;;;;;;9.13;89.97;97583.96;105142;1269;99208;-72
2023/04/25 02:05:58;;;;;;;5.50;3.30;;;;;;;9.07;90.19;97585.44;105214;1253;97910;-72
2023/04/25 02:08:26;;;;;;;3.90;2.90;;;;;;;9.01;90.70;97586.32;105254;1256;97979;-71
2023/04/25 02:10:53;;;;;;;3.90;2.70;;;;;;;8.99;90.82;97588.86;105262;1258;97906;-70
2023/04/25 02:13:20;;;;;;;3.30;2.70;;;;;;;8.95;90.54;97590.65;105258;1256;99208;-70
2023/04/25 02:15:47;;;;;;;2.80;2.30;;;;;;;8.91;89.96;97591.09;105239;1256;97894;-70
2023/04/25 02:18:15;;;;;;;3.50;2.80;;;;;;;8.92;89.98;97589.31;105118;1256;99196;-70
2023/04/25 02:20:44;;;;;;;2.80;2.30;;;;;;;8.89;89.82;97589.52;105322;1266;97981;-70
2023/04/25 02:23:11;;;;;;;3.10;2.70;;;;;;;8.87;89.44;97586.86;105118;1256;99234;-70
2023/04/25 02:25:37;;;;;;;3.40;2.10;;;;;;;8.86;89.26;97588.83;105105;1267;97897;-70
2023/04/25 02:28:04;;;;;;;3.10;2.00;;;;;;;8.78;88.75;97581.95;105282;1256;97939;-70
2023/04/25 02:30:31;;;;;;;3.10;2.10;;;;;;;8.69;88.60;97587.77;105257;1256;99282;-70
2023/04/25 02:32:59;;;;;;;2.50;1.80;;;;;;;8.63;88.48;97584.49;105281;1253;97996;-70
2023/04/25 02:35:26;;;;;;;2.60;1.90;;;;;;;8.56;88.62;97590.13;105146;1256;97906;-70
2023/04/25 02:37:53;;;;;;;2.60;2.10;;;;;;;8.55;88.81;97590.23;105093;1254;97981;-71
2023/04/25 02:40:20;;;;;;;2.00;1.70;;;;;;;8.50;88.12;97592.13;105064;1256;99414;-71
2023/04/25 02:42:47;;;;;;;2.40;1.70;;;;;;;8.47;88.29;97592.55;105148;1256;97866;-70
2023/04/25 02:45:14;;;;;;;2.20;1.90;;;;;;;8.47;88.15;97587.98;105249;1256;97903;-70
2023/04/25 02:47:41;;;;;;;4.00;2.10;;;;;;;8.45;88.33;97584.75;105195;1256;97953;-71
2023/04/25 02:50:08;;;;;;;2.20;1.70;;;;;;;8.44;87.93;97591.95;105312;1256;98519;-71
2023/04/25 02:52:35;;;;;;;3.60;2.00;;;;;;;8.41;87.97;97588.00;105352;1256;97888;-71
2023/04/25 02:55:02;;;;;;;3.10;1.90;;;;;;;8.37;87.90;97593.86;105268;1267;108286;-70
2023/04/25 02:57:31;;;;;;;2.80;2.30;;;;;;;8.32;87.93;97588.48;105299;1256;98473;-70
2023/04/25 03:00:01;;;;;;;3.50;2.20;;;;;;;8.27;88.12;97586.94;105263;1256;98184;-71
2023/04/25 03:02:36;;;;;;;4.20;3.30;;;;;;;8.21;88.10;97582.27;105074;1266;111159;-71
2023/04/25 03:05:07;;;;;;;4.00;3.50;;;;;;;8.18;88.07;97584.57;105242;1254;100185;-70
2023/04/25 03:07:39;;;;;;;3.80;3.30;;;;;;;8.17;88.12;97583.83;106238;1256;108199;-71
2023/04/25 03:10:07;;;;;;;3.80;2.50;;;;;;;8.16;88.27;97588.17;105071;1256;97892;-70
2023/04/25 03:12:34;;;;;;;3.30;2.40;;;;;;;8.16;88.27;97583.70;105279;1256;97819;-70
2023/04/25 03:15:01;;;;;;;4.00;2.20;;;;;;;8.16;88.41;97585.56;105262;1266;97909;-71
2023/04/25 03:17:28;;;;;;;3.70;2.30;;;;;;;8.19;88.60;97584.50;105184;1256;97909;-71
2023/04/25 03:19:55;;;;;;;2.90;2.10;;;;;;;8.19;87.88;97585.10;105267;1253;97947;-71
2023/04/25 03:22:22;;;;;;;4.10;2.50;;;;;;;8.16;88.00;97590.16;105106;1259;98342;-70
2023/04/25 03:24:50;;;;;;;2.80;2.20;;;;;;;8.13;88.58;97586.63;104933;1272;97951;-70
2023/04/25 03:27:17;;;;;;;2.20;2.00;;;;;;;8.10;88.72;97587.66;105183;1256;97884;-70
2023/04/25 03:29:44;;;;;;;2.80;2.20;;;;;;;8.09;88.28;97589.46;105111;1268;98226;-71
2023/04/25 03:32:11;;;;;;;3.60;2.30;;;;;;;8.05;88.37;97589.52;105179;1256;97884;-70
2023/04/25 03:34:38;;;;;;;3.40;2.50;;;;;;;8.01;88.40;97590.36;105324;1256;99084;-68
2023/04/25 03:37:05;;;;;;;3.50;2.60;;;;;;;7.99;88.29;97592.27;105024;1259;111170;-69
2023/04/25 03:39:32;;;;;;;4.70;2.50;;;;;;;8.00;88.23;97594.64;104902;1266;98011;-69
2023/04/25 03:41:59;;;;;;;3.00;2.40;;;;;;;8.00;88.20;97595.90;105073;1267;97989;-71
2023/04/25 03:44:26;;;;;;;3.00;2.10;;;;;;;7.99;88.29;97597.40;105215;1256;98811;-69
2023/04/25 03:46:53;;;;;;;2.90;2.20;;;;;;;8.04;88.34;97595.41;105000;1264;97990;-69
2023/04/25 03:49:20;;;;;;;2.80;2.10;;;;;;;8.05;87.81;97599.66;104924;1253;97937;-70
2023/04/25 03:51:47;;;;;;;3.80;2.50;;;;;;;8.07;88.17;97603.42;105217;1256;99188;-70
2023/04/25 03:54:14;;;;;;;4.60;2.50;;;;;;;8.07;88.16;97605.67;105208;1256;98811;-70
2023/04/25 03:56:41;;;;;;;5.70;2.50;;;;;;;8.08;88.35;97603.46;105265;1256;97881;-70
2023/04/25 03:59:08;;;;;;;5.60;3.30;;;;;;;8.06;88.30;97606.19;104983;1262;111864;-70
2023/04/25 04:01:35;;;;;;;5.60;3.20;;;;;;;8.01;88.77;97607.44;105272;1256;97910;-69
2023/04/25 04:04:02;;;;;;;6.70;3.90;;;;;;;7.98;88.72;97606.43;105155;1257;98853;-69
2023/04/25 04:06:29;;;;;;;7.50;4.20;;;;;;;8.01;88.82;97610.10;105578;1256;97990;-69
2023/04/25 04:08:56;;;;;;;8.30;4.00;;;;;;;8.05;89.04;97611.83;105201;1256;99215;-69
2023/04/25 04:11:23;;;;;;;6.00;3.80;;;;;;;8.07;88.89;97617.20;105211;1257;98243;-69
2023/04/25 04:13:50;;;;;;;5.40;3.50;;;;;;;8.07;89.05;97617.33;105232;1260;98321;-69
2023/04/25 04:16:18;;;;;;;7.90;3.30;;;;;;;8.11;88.96;97619.27;105164;1256;99231;-69
2023/04/25 04:18:46;;;;;;;6.10;3.90;;;;;;;8.14;88.88;97620.23;105250;1257;97888;-69
2023/04/25 04:21:13;;;;;;;6.00;3.60;;;;;;;8.17;89.02;97621.45;105256;1256;97935;-69
2023/04/25 04:23:40;;;;;;;6.90;4.20;;;;;;;8.21;89.04;97620.52;105049;1256;97869;-70
2023/04/25 04:26:08;;;;;;;5.40;3.60;;;;;;;8.21;88.81;97626.88;105085;1253;99192;-69
2023/04/25 04:28:35;;;;;;;5.50;3.10;;;;;;;8.19;88.71;97624.89;105040;1260;98090;-69
2023/04/25 04:31:03;;;;;;;4.40;3.00;;;;;;;8.17;88.40;97627.16;105236;1256;97937;-69
2023/04/25 04:33:30;;;;;;;5.30;3.30;;;;;;;8.15;88.57;97628.65;105241;1263;111851;-69
2023/04/25 04:35:57;;;;;;;4.60;3.40;;;;;;;8.16;88.35;97626.17;105206;1257;98004;-70
2023/04/25 04:38:25;;;;;;;5.70;3.40;;;;;;;8.18;88.35;97628.06;105178;1255;97972;-69
2023/04/25 04:40:52;;;;;;;6.00;3.50;;;;;;;8.24;88.62;97624.12;105239;1275;97890;-69
2023/04/25 04:43:19;;;;;;;4.70;3.10;;;;;;;8.30;88.32;97622.39;105221;1256;97895;-69
2023/04/25 04:45:46;;;;;;;4.70;2.80;;;;;;;8.36;88.56;97622.57;105054;1256;99189;-70
2023/04/25 04:48:13;;;;;;;3.50;2.80;;;;;;;8.43;88.01;97620.85;105110;1256;99209;-75
2023/04/25 04:50:44;;;;;;;5.10;3.00;;;;;;;8.48;87.65;97619.98;105148;1256;99241;-71
2023/04/25 04:53:11;;;;;;;;;;;;;;;8.51;87.40;97619.30;105136;1256;98484;-71
2023/04/25 04:55:40;;;;;;;3.50;2.50;;;;;;;8.53;87.87;97620.97;105296;1259;99190;-70
2023/04/25 04:58:08;;;;;;;5.10;3.10;;;;;;;8.56;87.85;97619.14;105049;1259;111947;-70
2023/04/25 05:00:35;;;;;;;6.20;3.70;;;;;;;8.59;87.99;97618.59;105277;1256;97975;-69
2023/04/25 05:03:02;;;;;;;6.10;3.70;;;;;;;8.62;87.35;97617.20;105204;1257;98419;-69
2023/04/25 05:05:29;;;;;;;5.70;3.20;;;;;;;8.63;87.14;97621.95;104999;1257;97967;-70
2023/04/25 05:07:57;;;;;;;5.40;3.60;;;;;;;8.62;87.09;97625.49;105005;1269;98295;-69
2023/04/25 05:10:24;;;;;;;4.50;3.30;;;;;;;8.64;86.41;97625.20;105113;1256;99218;-70
2023/04/25 05:12:51;;;;;;;6.20;3.90;;;;;;;8.66;85.36;97625.96;105238;1256;110677;-69
2023/04/25 05:15:18;;;;;;;4.20;3.40;;;;;;;8.73;85.50;97625.29;105010;1257;98347;-69
2023/04/25 05:17:45;;;;;;;4.60;3.70;;;;;;;8.79;85.55;97627.11;105029;1268;98585;-70
2023/04/25 05:20:13;;;;;;;6.60;4.00;;;;;;;8.88;85.50;97627.65;105104;1256;98409;-70
2023/04/25 05:22:41;;;;;;;7.50;4.30;;;;;;;8.96;84.90;97623.18;105167;1269;99230;-70
2023/04/25 05:25:09;;;;;;;7.00;3.30;;;;;;;8.96;84.25;97619.73;105066;1267;99260;-70
2023/04/25 05:27:36;;;;;;;5.70;3.40;;;;;;;8.96;83.95;97622.02;105197;1267;98808;-70
2023/04/25 05:30:05;;;;;;;5.10;2.90;;;;;;;8.96;83.71;97619.02;105212;1267;97972;-70
2023/04/25 05:32:32;;;;;;;5.70;3.20;;;;;;;8.90;83.06;97618.40;105066;1257;97987;-70
2023/04/25 05:35:00;;;;;;;5.30;3.40;;;;;;;8.88;83.32;97621.05;105212;1267;99188;-70
2023/04/25 05:37:27;;;;;;;5.10;3.50;;;;;;;8.86;83.09;97625.66;104907;1269;99003;-71
2023/04/25 05:39:54;;;;;;;5.70;3.60;;;;;;;8.87;83.73;97625.89;104985;1257;98826;-70
2023/04/25 05:42:21;;;;;;;5.40;3.20;;;;;;;8.88;83.25;97626.39;104986;1267;97978;-71
2023/04/25 05:44:48;;;;;;;4.60;3.40;;;;;;;8.91;83.04;97628.24;105103;1256;99224;-71
2023/04/25 05:47:15;;;;;;;5.50;3.50;;;;;;;8.95;83.21;97627.48;105043;1257;97925;-71
2023/04/25 05:49:43;;;;;;;7.00;4.20;;;;;;;9.00;82.84;97626.41;105243;1256;99302;-70
2023/04/25 05:52:10;;;;;;;6.10;3.30;;;;;;;9.05;83.11;97629.88;105241;1258;97982;-71
2023/04/25 05:54:37;;;;;;;6.70;3.50;;;;;;;9.13;83.03;97628.23;105145;1267;97920;-71
2023/04/25 05:57:04;;;;;;;6.00;3.60;;;;;;;9.23;82.91;97633.38;105229;1256;98218;-70
2023/04/25 05:59:31;;;;;;;5.50;3.30;;;;;;;9.24;82.29;97631.79;105019;1260;97978;-71
2023/04/25 06:01:58;;;;;;;6.80;3.60;;;;;;;9.25;82.62;97634.64;105175;1256;98003;-70
2023/04/25 06:04:25;;;;;;;5.80;3.50;;;;;;;9.28;82.25;97639.02;105297;1257;99259;-71
2023/04/25 06:06:53;;;;;;;7.00;3.60;;;;;;;9.26;81.59;97639.84;104913;1253;98640;-71
2023/04/25 06:09:19;;;;;;;6.10;3.90;;;;;;;9.24;81.35;97639.54;104997;1266;98694;-71
2023/04/25 06:11:46;;;;;;;5.80;3.80;;;;;;;9.28;82.00;97640.99;105154;1256;97952;-69
2023/04/25 06:14:13;;;;;;;6.30;4.00;;;;;;;9.30;81.75;97642.08;105093;1266;97906;-75
2023/04/25 06:16:41;;;;;;;7.90;4.20;;;;;;;9.33;81.73;97643.98;105290;1267;97937;-69
2023/04/25 06:19:08;;;;;;;6.60;4.30;;;;;;;9.32;81.30;97642.65;105196;1254;97912;-69
2023/04/25 06:21:35;;;;;;;7.40;4.40;;;;;;;9.36;81.35;97639.98;105257;1257;99218;-69
2023/04/25 06:24:02;;;;;;;5.80;3.70;;;;;;;9.43;81.03;97640.71;105256;1264;97891;-69
2023/04/25 06:26:29;;;;;;;5.70;4.10;;;;;;;9.40;79.86;97642.55;105251;1275;97890;-69
2023/04/25 06:28:56;;;;;;;6.30;3.80;;;;;;;9.46;81.06;97645.67;105240;1258;97861;-68
2023/04/25 06:31:23;;;;;;;5.70;3.60;;;;;;;9.56;80.64;97642.45;105234;1267;98416;-69
2023/04/25 06:33:50;;;;;;;6.10;3.70;;;;;;;9.61;80.38;97646.31;104993;1256;97916;-69
2023/04/25 06:36:17;;;;;;;5.20;3.60;;;;;;;9.68;80.38;97647.56;105208;1267;97912;-69
2023/04/25 06:38:44;;;;;;;5.90;3.90;;;;;;;9.71;79.61;97642.29;104980;1267;97860;-69
2023/04/25 06:41:11;;;;;;;6.00;3.80;;;;;;;9.71;79.65;97644.09;105184;1258;97924;-69
2023/04/25 06:43:38;;;;;;;8.80;4.20;;;;;;;9.71;78.61;97642.74;105192;1254;97911;-70
2023/04/25 06:46:05;;;;;;;5.80;3.90;;;;;;;9.66;78.96;97644.38;105117;1270;108181;-70
2023/04/25 06:48:32;;;;;;;6.40;4.10;;;;;;;9.69;79.13;97645.75;105217;1256;97925;-70
2023/04/25 06:50:59;;;;;;;6.30;4.20;;;;;;;9.71;79.79;97646.52;105255;1256;97916;-69
2023/04/25 06:53:26;;;;;;;8.60;3.60;;;;;;;9.77;79.25;97645.05;105273;1255;97908;-69
2023/04/25 06:55:53;;;;;;;6.40;3.90;;;;;;;9.85;78.91;97641.64;105038;1257;98061;-69
2023/04/25 06:58:20;;;;;;;6.00;4.00;;;;;;;9.95;78.87;97640.68;105075;1254;235639;-68
2023/04/25 07:00:47;;;;;;;4.90;3.50;;;;;;;10.05;77.70;97638.15;105193;1275;97916;-68
2023/04/25 07:03:14;;;;;;;6.30;4.00;;;;;;;10.23;78.73;97637.83;105287;1267;97941;-67
2023/04/25 07:05:42;;;;;;;5.70;3.80;;;;;;;10.43;78.05;97635.08;105112;1253;99309;-68
2023/04/25 07:08:09;;;;;;;8.80;4.20;;;;;;;10.60;76.68;97634.92;105146;1256;97893;-68
2023/04/25 07:10:35;;;;;;;7.50;4.00;;;;;;;10.72;75.96;97636.70;105239;1256;99208;-68
2023/04/25 07:13:02;;;;;;;5.80;3.40;;;;;;;10.89;76.78;97632.80;105236;1259;98706;-68
2023/04/25 07:15:29;;;;;;;5.20;3.80;;;;;;;11.06;76.24;97632.04;105079;1269;99171;-67
2023/04/25 07:17:56;;;;;;;5.10;3.40;;;;;;;11.23;76.49;97628.39;105210;1253;97899;-68
2023/04/25 07:20:24;;;;;;;6.90;3.70;;;;;;;11.42;74.90;97635.73;105245;1267;97887;-69
2023/04/25 07:22:51;;;;;;;5.00;2.80;;;;;;;11.50;72.73;97638.02;105248;1256;97873;-68
2023/04/25 07:25:18;;;;;;;7.30;4.00;;;;;;;11.60;73.93;97638.52;105269;1253;98030;-68
2023/04/25 07:27:45;;;;;;;4.80;3.40;;;;;;;11.75;72.22;97639.27;105203;1258;99137;-68
2023/04/25 07:30:13;;;;;;;5.20;4.20;;;;;;;11.78;70.79;97640.09;105074;1266;97900;-68
2023/04/25 07:32:40;;;;;;;4.10;3.20;;;;;;;11.83;71.09;97637.71;105450;1256;98371;-70
2023/04/25 07:35:08;;;;;;;5.80;3.30;;;;;;;11.97;71.06;97636.77;105090;1253;97959;-70
2023/04/25 07:37:35;;;;;;;7.50;3.60;;;;;;;12.04;69.29;97638.55;105267;1266;99185;-69
2023/04/25 07:40:03;;;;;;;5.90;3.60;;;;;;;12.07;69.19;97641.23;105230;1256;99183;-69
2023/04/25 07:42:30;;;;;;;5.60;3.40;;;;;;;12.09;67.39;97638.45;105228;1256;108493;-68
2023/04/25 07:44:57;;;;;;;7.30;3.80;;;;;;;12.11;67.81;97635.31;105260;1256;97903;-70
2023/04/25 07:47:25;;;;;;;5.50;3.60;;;;;;;12.19;67.63;97639.78;105228;1267;97908;-69
2023/04/25 07:49:52;;;;;;;8.40;3.90;;;;;;;12.28;67.77;97637.90;105233;1257;97883;-67
2023/04/25 07:52:19;;;;;;;5.60;3.70;;;;;;;12.29;65.41;97635.41;105288;1257;98579;-68
2023/04/25 07:54:47;;;;;;;7.00;4.00;;;;;;;12.18;63.62;97638.02;105284;1266;99216;-69
2023/04/25 07:57:14;;;;;;;4.50;3.30;;;;;;;12.16;66.16;97644.00;105216;1257;98003;-68
2023/04/25 07:59:41;;;;;;;5.50;3.80;;;;;;;12.41;67.05;97637.52;105240;1266;97874;-68
2023/04/25 08:02:08;;;;;;;6.90;4.60;;;;;;;12.62;64.74;97633.52;105157;1257;98338;-68
2023/04/25 08:04:35;;;;;;;5.70;3.80;;;;;;;12.67;65.06;97636.48;105204;1267;97893;-68
2023/04/25 08:07:02;;;;;;;5.70;3.30;;;;;;;12.81;63.15;97638.17;105209;1266;97997;-68
2023/04/25 08:09:33;;;;;;;5.60;3.80;;;;;;;12.70;62.52;97638.13;105317;1256;97868;-68
2023/04/25 08:12:01;;;;;;;5.10;3.90;;;;;;;12.66;60.10;97633.06;105113;1256;112421;-68
2023/04/25 08:14:35;;;;;;;5.20;4.30;;;;;;;12.66;64.20;97632.14;105252;1265;99109;-69
2023/04/25 08:17:03;;;;;;;8.30;4.30;;;;;;;12.92;64.41;97633.48;105205;1267;108484;-69
2023/04/25 08:19:30;;;;;;;7.40;4.40;;;;;;;13.12;64.97;97635.38;105041;1262;98125;-69
2023/04/25 08:21:57;;;;;;;6.80;4.20;;;;;;;13.27;64.56;97632.51;105222;1267;97858;-69
2023/04/25 08:24:24;;;;;;;6.20;4.30;;;;;;;13.32;63.84;97631.77;105210;1254;97891;-69
2023/04/25 08:26:51;;;;;;;5.00;3.80;;;;;;;13.37;63.46;97631.73;105252;1266;99254;-69
2023/04/25 08:29:18;;;;;;;6.40;4.00;;;;;;;13.42;62.43;97638.84;105518;1267;97981;-69
2023/04/25 08:31:45;;;;;;;6.30;4.30;;;;;;;13.36;62.72;97639.48;104944;1267;99011;-69
2023/04/25 08:34:13;;;;;;;5.50;3.90;;;;;;;13.37;62.63;97638.23;104988;1259;99297;-69
2023/04/25 08:36:40;;;;;;;8.10;4.00;;;;;;;13.44;62.52;97637.30;104979;1267;98923;-69
2023/04/25 08:39:07;;;;;;;4.40;3.40;;;;;;;13.61;62.01;97633.30;104968;1268;97884;-69
2023/04/25 08:41:37;;;;;;;5.20;3.60;;;;;;;13.64;60.02;97633.84;105146;1263;97932;-69
2023/04/25 08:44:06;;;;;;;5.20;4.10;;;;;;;13.78;61.52;97633.52;105227;1266;99208;-69
2023/04/25 08:46:33;;;;;;;4.40;3.70;;;;;;;13.92;61.35;97634.41;105221;1264;112104;-69
2023/04/25 08:49:02;;;;;;;6.20;4.20;;;;;;;14.10;61.26;97634.31;105256;1266;99184;-69
2023/04/25 08:51:32;;;;;;;5.20;4.00;;;;;;;14.20;60.33;97633.56;104994;1259;107043;-68
2023/04/25 08:54:10;;;;;;;6.90;3.80;;;;;;;14.19;59.40;97635.60;105188;1267;97891;-70
2023/04/25 08:57:01;;;;;;;5.20;3.60;;;;;;;14.02;57.34;97630.69;105079;1267;99531;-69
2023/04/25 08:59:29;;;;;;;5.00;3.00;;;;;;;13.87;58.80;97629.29;105078;1268;112137;-69
2023/04/25 09:01:57;;;;;;;3.20;2.60;;;;;;;13.99;58.77;97632.89;105292;1267;98252;-69
2023/04/25 09:04:24;;;;;;;2.50;2.20;;;;;;;14.08;56.06;97634.75;105075;1263;108354;-69
2023/04/25 09:06:51;;;;;;;2.90;1.90;;;;;;;14.11;56.03;97639.68;105211;1266;98784;-69
2023/04/25 09:09:18;;;;;;;2.70;2.10;;;;;;;14.12;54.86;97636.56;105097;1267;97898;-69
2023/04/25 09:11:45;;;;;;;2.80;1.90;;;;;;;14.24;56.00;97640.11;105085;1267;98013;-69
2023/04/25 09:14:13;;;;;;;2.50;1.70;;;;;;;14.48;55.65;97638.11;105237;1267;98018;-68
2023/04/25 09:16:55;;;;;;;2.20;1.90;;;;;;;14.71;54.43;97633.64;105203;1266;98114;-69
2023/04/25 09:19:27;;;;;;;2.90;2.10;;;;;;;14.90;51.91;97633.20;105228;1267;97987;-69
2023/04/25 09:22:07;;;;;;;3.90;2.10;;;;;;;15.01;51.66;97635.27;104921;1262;98196;-69
2023/04/25 09:24:38;;;;;;;2.80;1.90;;;;;;;15.11;51.86;97633.77;105361;1273;112272;-70
2023/04/25 09:27:06;;;;;;;;;;;;;;;15.14;52.24;97635.65;104986;1267;98932;-69
2023/04/25 09:29:36;;;;;;;2.00;1.80;;;;;;;15.22;50.44;97633.30;105229;1266;108587;-70
2023/04/25 09:32:22;;;;;;;3.90;2.60;;;;;;;15.22;50.45;97629.52;105204;1258;97931;-69
2023/04/25 09:34:52;;;;;;;3.90;2.70;;;;;;;15.26;51.63;97627.05;105067;1264;99093;-70
2023/04/25 09:37:30;;;;;;;4.40;2.80;;;;;;;15.16;51.23;97630.45;105154;1266;110998;-70
2023/04/25 09:40:05;;;;;;;4.60;3.60;;;;;;;15.12;51.65;97633.09;104962;1259;98895;-71
2023/04/25 09:42:34;;;;;;;2.90;2.40;;;;;;;14.97;51.63;97629.92;105133;1264;108691;-70
2023/04/25 09:45:02;;;;;;;3.30;2.50;;;;;;;14.86;52.09;97630.05;105047;1275;97871;-71
2023/04/25 09:47:29;;;;;;;5.30;3.00;;;;;;;14.79;51.58;97633.02;105095;1258;97897;-70
2023/04/25 09:49:56;;;;;;;3.50;2.60;;;;;;;14.60;50.96;97632.41;105091;1267;97881;-69
2023/04/25 09:52:25;;;;;;;3.80;2.70;;;;;;;14.45;52.74;97630.65;105173;1267;99195;-69
2023/04/25 09:54:52;;;;;;;2.70;2.30;;;;;;;14.45;52.31;97633.71;105249;1257;108564;-71
2023/04/25 09:57:22;;;;;;;3.30;2.10;;;;;;;14.44;52.36;97631.95;105219;1260;97894;-69
2023/04/25 09:59:51;;;;;;;3.30;2.40;;;;;;;14.38;51.42;97633.05;104713;1261;98808;-71
2023/04/25 10:02:21;;;;;;;3.40;2.80;;;;;;;14.47;52.55;97638.80;104972;1267;112153;-72
2023/04/25 10:04:52;;;;;;;3.60;2.80;;;;;;;14.56;52.50;97631.41;104836;1270;99172;-72
2023/04/25 10:07:25;;;;;;;3.80;2.80;;;;;;;14.64;52.63;97632.03;105154;1257;108701;-70
2023/04/25 10:10:03;;;;;;;3.90;2.30;;;;;;;14.60;52.10;97630.85;105212;1258;97870;-72
2023/04/25 10:12:32;;;;;;;3.50;2.40;;;;;;;14.61;52.55;97629.77;104911;1268;100311;-73
2023/04/25 10:15:00;;;;;;;4.20;2.30;;;;;;;14.48;49.36;97630.87;104757;1260;111539;-74
2023/04/25 10:17:27;;;;;;;4.10;2.50;;;;;;;14.38;51.81;97629.26;104969;1257;97814;-73
2023/04/25 10:19:56;;;;;;;3.60;2.90;;;;;;;14.48;51.94;97626.37;104802;1271;107721;-72
2023/04/25 10:22:34;;;;;;;6.60;3.30;;;;;;;14.44;51.93;97627.39;105561;1257;97880;-70
2023/04/25 10:25:05;;;;;;;3.50;2.70;;;;;;;14.41;52.08;97630.80;104874;1264;99667;-72
2023/04/25 10:27:34;;;;;;;4.80;2.80;;;;;;;14.43;52.21;97628.96;105221;1257;112337;-72
2023/04/25 10:30:15;;;;;;;4.10;2.90;;;;;;;14.45;52.06;97631.20;105267;1259;98738;-72
2023/04/25 10:32:43;;;;;;;5.20;3.10;;;;;;;14.50;52.02;97627.91;105243;1266;107566;-72
2023/04/25 10:35:11;;;;;;;4.50;3.20;;;;;;;14.54;50.86;97626.95;104995;1275;98015;-72
2023/04/25 10:37:38;;;;;;;3.40;3.10;;;;;;;14.61;51.88;97626.52;105299;1257;97981;-69
2023/04/25 10:40:11;;;;;;;7.80;3.20;;;;;;;14.68;51.00;97621.61;105210;1266;111224;-71
2023/04/25 10:42:37;;;;;;;4.20;3.00;;;;;;;14.79;51.51;97627.33;105342;1257;99287;-69
2023/04/25 10:45:05;;;;;;;3.70;2.70;;;;;;;15.02;50.66;97625.82;105234;1258;99230;-73
2023/04/25 10:47:36;;;;;;;7.60;3.10;;;;;;;15.13;50.23;97623.16;105259;1254;98023;-73
2023/04/25 10:50:08;;;;;;;5.00;3.00;;;;;;;15.33;50.08;97620.55;105302;1256;97894;-69
2023/04/25 10:52:39;;;;;;;5.50;3.00;;;;;;;15.48;49.73;97621.48;105272;1257;112460;-72
2023/04/25 10:55:07;;;;;;;4.70;3.10;;;;;;;15.63;49.13;97620.27;105073;1269;99262;-71
2023/04/25 10:57:49;;;;;;;4.00;2.80;;;;;;;15.79;49.52;97618.97;105196;1264;108563;-74
2023/04/25 11:00:22;;;;;;;3.60;2.80;;;;;;;15.87;47.91;97625.63;105265;1269;97973;-69
2023/04/25 11:02:59;;;;;;;4.20;3.20;;;;;;;15.94;48.12;97623.29;105059;1254;99160;-73
2023/04/25 11:05:40;;;;;;;3.80;3.20;;;;;;;15.86;48.66;97626.09;105078;1254;111483;-69
2023/04/25 11:08:43;;;;;;;4.00;2.90;;;;;;;15.73;48.12;97624.66;104877;1254;98607;-75
2023/04/25 11:11:12;;;;;;;4.00;2.60;;;;;;;15.66;47.69;97623.63;105267;1254;108589;-70
2023/04/25 11:13:39;;;;;;;4.50;2.60;;;;;;;15.63;48.15;97623.90;105277;1257;99167;-69
2023/04/25 11:16:09;;;;;;;4.30;2.90;;;;;;;15.61;48.33;97626.15;105124;1257;99206;-74
2023/04/25 11:18:43;;;;;;;3.80;3.00;;;;;;;15.36;47.69;97623.42;105425;1267;112296;-69
2023/04/25 11:21:11;;;;;;;3.60;2.50;;;;;;;15.21;48.73;97625.02;105286;1256;99437;-71
2023/04/25 11:23:39;;;;;;;3.20;2.70;;;;;;;15.07;48.00;97624.73;105209;1256;108670;-71
2023/04/25 11:26:07;;;;;;;6.80;2.80;;;;;;;14.95;48.48;97628.79;105235;1266;97960;-73
2023/04/25 11:28:34;;;;;;;4.10;3.20;;;;;;;14.80;48.44;97630.41;105311;1257;97993;-74
2023/04/25 11:31:04;;;;;;;5.50;3.00;;;;;;;14.70;49.20;97632.20;105214;1267;98051;-74
2023/04/25 11:33:31;;;;;;;3.70;3.30;;;;;;;14.73;49.21;97633.42;105287;1256;99076;-70